sensor_id;sensor_type;location;lat;lon;timestamp;P1;durP1;ratioP1;P2;durP2;ratioP2
14933;SDS011;7560;51.364;12.384;2024-03-25T00:02:47;1.25;;;0.90;;
14933;SDS011;7560;51.364;12.384;2024-03-25T00:07:48;4.60;;;1.30;;
14933;SDS011;7560;51.364;12.384;2024-03-25T00:12:49;2.42;;;1.13;;
14933;SDS011;7560;51.364;12.384;2024-03-25T00:17:52;2.17;;;1.50;;
14933;SDS011;7560;51.364;12.384;2024-03-25T00:22:53;3.00;;;1.60;;
14933;SDS011;7560;51.364;12.384;2024-03-25T00:27:54;3.78;;;1.90;;
14933;SDS011;7560;51.364;12.384;2024-03-25T00:32:55;3.28;;;2.05;;
14933;SDS011;7560;51.364;12.384;2024-03-25T00:37:56;4.35;;;2.03;;
14933;SDS011;7560;51.364;12.384;2024-03-25T00:42:57;4.88;;;2.40;;
14933;SDS011;7560;51.364;12.384;2024-03-25T00:47:57;3.38;;;2.28;;
14933;SDS011;7560;51.364;12.384;2024-03-25T00:52:59;2.22;;;1.80;;
14933;SDS011;7560;51.364;12.384;2024-03-25T00:58:03;4.10;;;1.80;;
14933;SDS011;7560;51.364;12.384;2024-03-25T01:03:04;3.80;;;1.88;;
14933;SDS011;7560;51.364;12.384;2024-03-25T01:08:05;2.40;;;1.80;;
14933;SDS011;7560;51.364;12.384;2024-03-25T01:13:06;4.50;;;1.58;;
14933;SDS011;7560;51.364;12.384;2024-03-25T01:18:07;2.40;;;1.50;;
14933;SDS011;7560;51.364;12.384;2024-03-25T01:23:08;2.45;;;1.60;;
14933;SDS011;7560;51.364;12.384;2024-03-25T01:28:09;2.97;;;1.80;;
14933;SDS011;7560;51.364;12.384;2024-03-25T01:33:10;2.78;;;1.83;;
14933;SDS011;7560;51.364;12.384;2024-03-25T01:38:11;2.38;;;1.40;;
14933;SDS011;7560;51.364;12.384;2024-03-25T01:43:12;3.10;;;1.50;;
14933;SDS011;7560;51.364;12.384;2024-03-25T01:48:12;4.22;;;1.92;;
14933;SDS011;7560;51.364;12.384;2024-03-25T01:53:13;2.30;;;1.70;;
14933;SDS011;7560;51.364;12.384;2024-03-25T01:58:15;2.53;;;1.52;;
14933;SDS011;7560;51.364;12.384;2024-03-25T02:03:16;2.05;;;1.58;;
14933;SDS011;7560;51.364;12.384;2024-03-25T02:08:17;1.60;;;1.27;;
14933;SDS011;7560;51.364;12.384;2024-03-25T02:13:19;2.40;;;1.48;;
14933;SDS011;7560;51.364;12.384;2024-03-25T02:18:20;2.95;;;1.70;;
14933;SDS011;7560;51.364;12.384;2024-03-25T02:23:21;2.17;;;1.38;;
14933;SDS011;7560;51.364;12.384;2024-03-25T02:28:22;3.10;;;1.45;;
14933;SDS011;7560;51.364;12.384;2024-03-25T02:33:22;2.75;;;1.20;;
14933;SDS011;7560;51.364;12.384;2024-03-25T02:38:23;4.75;;;1.40;;
14933;SDS011;7560;51.364;12.384;2024-03-25T02:43:25;3.85;;;1.55;;
14933;SDS011;7560;51.364;12.384;2024-03-25T02:48:26;3.05;;;1.30;;
14933;SDS011;7560;51.364;12.384;2024-03-25T02:53:27;5.20;;;1.50;;
14933;SDS011;7560;51.364;12.384;2024-03-25T02:58:27;3.10;;;1.35;;
14933;SDS011;7560;51.364;12.384;2024-03-25T03:03:28;3.08;;;1.40;;
14933;SDS011;7560;51.364;12.384;2024-03-25T03:08:29;3.75;;;1.45;;
14933;SDS011;7560;51.364;12.384;2024-03-25T03:13:30;4.10;;;1.63;;
14933;SDS011;7560;51.364;12.384;2024-03-25T03:18:31;5.30;;;1.50;;
14933;SDS011;7560;51.364;12.384;2024-03-25T03:23:31;5.05;;;1.67;;
14933;SDS011;7560;51.364;12.384;2024-03-25T03:28:32;3.20;;;1.45;;
14933;SDS011;7560;51.364;12.384;2024-03-25T03:33:33;2.15;;;1.40;;
14933;SDS011;7560;51.364;12.384;2024-03-25T03:38:34;2.38;;;1.25;;
14933;SDS011;7560;51.364;12.384;2024-03-25T03:43:35;1.63;;;1.17;;
14933;SDS011;7560;51.364;12.384;2024-03-25T03:48:36;3.13;;;1.45;;
14933;SDS011;7560;51.364;12.384;2024-03-25T03:53:38;1.83;;;1.25;;
14933;SDS011;7560;51.364;12.384;2024-03-25T03:58:39;2.13;;;1.30;;
14933;SDS011;7560;51.364;12.384;2024-03-25T04:03:40;3.25;;;1.48;;
14933;SDS011;7560;51.364;12.384;2024-03-25T04:08:40;3.33;;;1.55;;
14933;SDS011;7560;51.364;12.384;2024-03-25T04:13:41;2.63;;;1.58;;
14933;SDS011;7560;51.364;12.384;2024-03-25T04:18:43;4.22;;;2.00;;
14933;SDS011;7560;51.364;12.384;2024-03-25T04:23:44;3.08;;;1.90;;
14933;SDS011;7560;51.364;12.384;2024-03-25T04:28:45;4.18;;;1.75;;
14933;SDS011;7560;51.364;12.384;2024-03-25T04:33:46;4.28;;;1.83;;
14933;SDS011;7560;51.364;12.384;2024-03-25T04:38:47;4.63;;;1.73;;
14933;SDS011;7560;51.364;12.384;2024-03-25T04:43:47;5.20;;;2.60;;
14933;SDS011;7560;51.364;12.384;2024-03-25T04:48:49;2.53;;;1.50;;
14933;SDS011;7560;51.364;12.384;2024-03-25T04:53:49;6.03;;;1.83;;
14933;SDS011;7560;51.364;12.384;2024-03-25T04:58:50;3.55;;;1.98;;
14933;SDS011;7560;51.364;12.384;2024-03-25T05:03:51;4.05;;;2.00;;
14933;SDS011;7560;51.364;12.384;2024-03-25T05:08:52;4.50;;;2.42;;
14933;SDS011;7560;51.364;12.384;2024-03-25T05:13:53;4.32;;;1.75;;
14933;SDS011;7560;51.364;12.384;2024-03-25T05:18:53;4.38;;;1.75;;
14933;SDS011;7560;51.364;12.384;2024-03-25T05:23:54;2.92;;;1.73;;
14933;SDS011;7560;51.364;12.384;2024-03-25T05:28:56;4.90;;;1.73;;
14933;SDS011;7560;51.364;12.384;2024-03-25T05:33:57;4.93;;;2.00;;
14933;SDS011;7560;51.364;12.384;2024-03-25T05:39:00;2.20;;;1.33;;
14933;SDS011;7560;51.364;12.384;2024-03-25T05:44:01;1.83;;;1.42;;
14933;SDS011;7560;51.364;12.384;2024-03-25T05:49:04;1.52;;;1.42;;
14933;SDS011;7560;51.364;12.384;2024-03-25T05:54:05;3.20;;;1.40;;
14933;SDS011;7560;51.364;12.384;2024-03-25T05:59:06;2.72;;;1.10;;
14933;SDS011;7560;51.364;12.384;2024-03-25T06:04:07;2.10;;;1.10;;
14933;SDS011;7560;51.364;12.384;2024-03-25T06:09:08;2.10;;;1.30;;
14933;SDS011;7560;51.364;12.384;2024-03-25T06:14:09;2.53;;;1.30;;
14933;SDS011;7560;51.364;12.384;2024-03-25T06:19:10;3.90;;;1.60;;
14933;SDS011;7560;51.364;12.384;2024-03-25T06:24:11;4.03;;;1.20;;
14933;SDS011;7560;51.364;12.384;2024-03-25T06:29:12;3.42;;;1.20;;
14933;SDS011;7560;51.364;12.384;2024-03-25T06:34:12;2.60;;;1.30;;
14933;SDS011;7560;51.364;12.384;2024-03-25T06:39:21;1.55;;;1.20;;
14933;SDS011;7560;51.364;12.384;2024-03-25T06:44:22;1.80;;;1.48;;
14933;SDS011;7560;51.364;12.384;2024-03-25T06:49:25;4.65;;;1.52;;
14933;SDS011;7560;51.364;12.384;2024-03-25T06:54:26;1.98;;;1.10;;
14933;SDS011;7560;51.364;12.384;2024-03-25T06:59:26;2.25;;;1.00;;
14933;SDS011;7560;51.364;12.384;2024-03-25T07:04:27;2.35;;;1.10;;
14933;SDS011;7560;51.364;12.384;2024-03-25T07:09:28;2.13;;;1.40;;
14933;SDS011;7560;51.364;12.384;2024-03-25T07:14:29;4.30;;;1.42;;
14933;SDS011;7560;51.364;12.384;2024-03-25T07:19:30;1.98;;;1.25;;
14933;SDS011;7560;51.364;12.384;2024-03-25T07:24:31;3.15;;;1.60;;
14933;SDS011;7560;51.364;12.384;2024-03-25T07:29:32;2.38;;;1.10;;
14933;SDS011;7560;51.364;12.384;2024-03-25T07:34:33;2.28;;;1.13;;
14933;SDS011;7560;51.364;12.384;2024-03-25T07:39:34;3.80;;;1.00;;
14933;SDS011;7560;51.364;12.384;2024-03-25T07:44:35;4.35;;;1.33;;
14933;SDS011;7560;51.364;12.384;2024-03-25T07:49:36;3.38;;;1.30;;
14933;SDS011;7560;51.364;12.384;2024-03-25T07:54:37;2.05;;;1.20;;
14933;SDS011;7560;51.364;12.384;2024-03-25T07:59:38;2.50;;;1.10;;
14933;SDS011;7560;51.364;12.384;2024-03-25T08:04:39;3.25;;;1.10;;
14933;SDS011;7560;51.364;12.384;2024-03-25T08:09:40;3.33;;;1.10;;
14933;SDS011;7560;51.364;12.384;2024-03-25T08:14:41;2.28;;;1.10;;
14933;SDS011;7560;51.364;12.384;2024-03-25T08:19:43;2.25;;;1.20;;
14933;SDS011;7560;51.364;12.384;2024-03-25T08:24:44;2.33;;;1.20;;
14933;SDS011;7560;51.364;12.384;2024-03-25T08:29:45;2.15;;;1.17;;
14933;SDS011;7560;51.364;12.384;2024-03-25T08:34:46;3.83;;;1.50;;
14933;SDS011;7560;51.364;12.384;2024-03-25T08:39:47;3.85;;;1.35;;
14933;SDS011;7560;51.364;12.384;2024-03-25T08:44:48;2.83;;;1.35;;
14933;SDS011;7560;51.364;12.384;2024-03-25T08:49:48;2.25;;;1.42;;
14933;SDS011;7560;51.364;12.384;2024-03-25T08:54:49;3.28;;;1.40;;
14933;SDS011;7560;51.364;12.384;2024-03-25T08:59:50;2.90;;;1.50;;
14933;SDS011;7560;51.364;12.384;2024-03-25T09:04:51;2.78;;;1.30;;
14933;SDS011;7560;51.364;12.384;2024-03-25T09:09:53;3.03;;;1.45;;
14933;SDS011;7560;51.364;12.384;2024-03-25T09:15:12;4.18;;;1.60;;
14933;SDS011;7560;51.364;12.384;2024-03-25T09:20:15;3.70;;;1.55;;
14933;SDS011;7560;51.364;12.384;2024-03-25T09:25:20;2.25;;;2.05;;
14933;SDS011;7560;51.364;12.384;2024-03-25T09:30:21;2.67;;;1.80;;
14933;SDS011;7560;51.364;12.384;2024-03-25T09:35:22;3.38;;;2.00;;
14933;SDS011;7560;51.364;12.384;2024-03-25T09:40:23;3.83;;;2.03;;
14933;SDS011;7560;51.364;12.384;2024-03-25T09:45:25;2.72;;;1.85;;
14933;SDS011;7560;51.364;12.384;2024-03-25T09:50:28;4.53;;;2.13;;
14933;SDS011;7560;51.364;12.384;2024-03-25T09:55:29;3.63;;;1.85;;
14933;SDS011;7560;51.364;12.384;2024-03-25T10:00:30;1.75;;;1.17;;
14933;SDS011;7560;51.364;12.384;2024-03-25T10:05:31;4.93;;;1.20;;
14933;SDS011;7560;51.364;12.384;2024-03-25T10:10:33;1.98;;;1.20;;
14933;SDS011;7560;51.364;12.384;2024-03-25T10:15:34;1.50;;;1.20;;
14933;SDS011;7560;51.364;12.384;2024-03-25T10:20:35;1.50;;;1.20;;
14933;SDS011;7560;51.364;12.384;2024-03-25T10:25:36;3.00;;;1.35;;
14933;SDS011;7560;51.364;12.384;2024-03-25T10:30:37;2.60;;;1.35;;
14933;SDS011;7560;51.364;12.384;2024-03-25T10:35:38;2.78;;;1.00;;
14933;SDS011;7560;51.364;12.384;2024-03-25T10:40:40;3.33;;;1.20;;
14933;SDS011;7560;51.364;12.384;2024-03-25T10:45:43;1.00;;;0.88;;
14933;SDS011;7560;51.364;12.384;2024-03-25T10:50:46;1.42;;;0.90;;
14933;SDS011;7560;51.364;12.384;2024-03-25T10:55:50;4.05;;;1.40;;
14933;SDS011;7560;51.364;12.384;2024-03-25T11:00:53;2.53;;;1.20;;
14933;SDS011;7560;51.364;12.384;2024-03-25T11:05:56;2.88;;;1.38;;
14933;SDS011;7560;51.364;12.384;2024-03-25T11:10:57;3.30;;;1.25;;
14933;SDS011;7560;51.364;12.384;2024-03-25T11:15:58;1.92;;;1.10;;
14933;SDS011;7560;51.364;12.384;2024-03-25T11:21:03;1.40;;;0.80;;
14933;SDS011;7560;51.364;12.384;2024-03-25T11:26:16;2.75;;;1.00;;
14933;SDS011;7560;51.364;12.384;2024-03-25T11:31:21;2.22;;;1.00;;
14933;SDS011;7560;51.364;12.384;2024-03-25T11:36:24;1.33;;;0.73;;
14933;SDS011;7560;51.364;12.384;2024-03-25T11:41:25;3.08;;;1.02;;
14933;SDS011;7560;51.364;12.384;2024-03-25T11:46:26;1.42;;;0.90;;
14933;SDS011;7560;51.364;12.384;2024-03-25T11:51:27;1.70;;;0.93;;
14933;SDS011;7560;51.364;12.384;2024-03-25T11:56:28;3.88;;;1.38;;
14933;SDS011;7560;51.364;12.384;2024-03-25T12:01:29;2.55;;;1.10;;
14933;SDS011;7560;51.364;12.384;2024-03-25T12:06:31;1.98;;;1.05;;
14933;SDS011;7560;51.364;12.384;2024-03-25T12:11:32;2.45;;;1.10;;
14933;SDS011;7560;51.364;12.384;2024-03-25T12:16:32;4.82;;;1.17;;
14933;SDS011;7560;51.364;12.384;2024-03-25T12:21:33;3.00;;;1.00;;
14933;SDS011;7560;51.364;12.384;2024-03-25T12:26:34;2.50;;;1.42;;
14933;SDS011;7560;51.364;12.384;2024-03-25T12:31:36;2.42;;;1.42;;
14933;SDS011;7560;51.364;12.384;2024-03-25T12:36:36;2.47;;;1.20;;
14933;SDS011;7560;51.364;12.384;2024-03-25T12:41:37;1.95;;;1.30;;
14933;SDS011;7560;51.364;12.384;2024-03-25T12:46:38;4.45;;;1.35;;
14933;SDS011;7560;51.364;12.384;2024-03-25T12:51:39;4.05;;;1.50;;
14933;SDS011;7560;51.364;12.384;2024-03-25T12:56:40;4.15;;;1.35;;
14933;SDS011;7560;51.364;12.384;2024-03-25T13:01:42;2.67;;;1.10;;
14933;SDS011;7560;51.364;12.384;2024-03-25T13:06:43;1.52;;;1.20;;
14933;SDS011;7560;51.364;12.384;2024-03-25T13:11:44;4.78;;;1.40;;
14933;SDS011;7560;51.364;12.384;2024-03-25T13:16:45;1.42;;;1.20;;
14933;SDS011;7560;51.364;12.384;2024-03-25T13:21:46;2.28;;;1.13;;
14933;SDS011;7560;51.364;12.384;2024-03-25T13:26:48;2.67;;;1.30;;
14933;SDS011;7560;51.364;12.384;2024-03-25T13:31:48;2.33;;;1.63;;
14933;SDS011;7560;51.364;12.384;2024-03-25T13:36:49;3.03;;;1.83;;
14933;SDS011;7560;51.364;12.384;2024-03-25T13:41:50;3.00;;;1.60;;
14933;SDS011;7560;51.364;12.384;2024-03-25T13:46:51;4.22;;;1.60;;
14933;SDS011;7560;51.364;12.384;2024-03-25T13:51:57;4.93;;;1.90;;
14933;SDS011;7560;51.364;12.384;2024-03-25T13:56:59;3.95;;;1.83;;
14933;SDS011;7560;51.364;12.384;2024-03-25T14:02:00;1.75;;;1.40;;
14933;SDS011;7560;51.364;12.384;2024-03-25T14:07:01;2.67;;;1.33;;
14933;SDS011;7560;51.364;12.384;2024-03-25T14:12:02;2.72;;;1.23;;
14933;SDS011;7560;51.364;12.384;2024-03-25T14:17:03;1.60;;;1.30;;
14933;SDS011;7560;51.364;12.384;2024-03-25T14:22:04;4.47;;;1.58;;
14933;SDS011;7560;51.364;12.384;2024-03-25T14:27:05;2.35;;;1.42;;
14933;SDS011;7560;51.364;12.384;2024-03-25T14:32:08;1.85;;;1.58;;
14933;SDS011;7560;51.364;12.384;2024-03-25T14:37:09;4.05;;;1.70;;
14933;SDS011;7560;51.364;12.384;2024-03-25T14:42:10;3.22;;;1.75;;
14933;SDS011;7560;51.364;12.384;2024-03-25T14:47:11;3.03;;;1.58;;
14933;SDS011;7560;51.364;12.384;2024-03-25T14:52:12;2.78;;;1.58;;
14933;SDS011;7560;51.364;12.384;2024-03-25T14:57:13;2.95;;;1.40;;
14933;SDS011;7560;51.364;12.384;2024-03-25T15:02:14;2.72;;;1.17;;
14933;SDS011;7560;51.364;12.384;2024-03-25T15:07:15;2.25;;;1.42;;
14933;SDS011;7560;51.364;12.384;2024-03-25T15:12:15;2.58;;;1.42;;
14933;SDS011;7560;51.364;12.384;2024-03-25T15:17:16;1.65;;;1.20;;
14933;SDS011;7560;51.364;12.384;2024-03-25T15:22:17;2.10;;;1.40;;
14933;SDS011;7560;51.364;12.384;2024-03-25T15:27:18;2.90;;;1.10;;
14933;SDS011;7560;51.364;12.384;2024-03-25T15:32:19;2.33;;;1.30;;
14933;SDS011;7560;51.364;12.384;2024-03-25T15:37:20;2.47;;;1.40;;
14933;SDS011;7560;51.364;12.384;2024-03-25T15:42:21;2.45;;;1.20;;
14933;SDS011;7560;51.364;12.384;2024-03-25T15:47:22;1.55;;;0.90;;
14933;SDS011;7560;51.364;12.384;2024-03-25T15:52:23;2.85;;;1.38;;
14933;SDS011;7560;51.364;12.384;2024-03-25T15:57:24;4.15;;;1.85;;
14933;SDS011;7560;51.364;12.384;2024-03-25T16:02:25;1.67;;;1.08;;
14933;SDS011;7560;51.364;12.384;2024-03-25T16:07:26;6.93;;;2.53;;
14933;SDS011;7560;51.364;12.384;2024-03-25T16:12:27;4.00;;;2.22;;
14933;SDS011;7560;51.364;12.384;2024-03-25T16:17:28;4.13;;;1.70;;
14933;SDS011;7560;51.364;12.384;2024-03-25T16:22:29;5.65;;;1.40;;
14933;SDS011;7560;51.364;12.384;2024-03-25T16:27:32;3.10;;;1.40;;
14933;SDS011;7560;51.364;12.384;2024-03-25T16:32:33;3.72;;;1.52;;
14933;SDS011;7560;51.364;12.384;2024-03-25T16:37:34;3.33;;;1.60;;
14933;SDS011;7560;51.364;12.384;2024-03-25T16:42:35;1.70;;;1.30;;
14933;SDS011;7560;51.364;12.384;2024-03-25T16:47:36;4.78;;;1.60;;
14933;SDS011;7560;51.364;12.384;2024-03-25T16:52:37;3.55;;;1.65;;
14933;SDS011;7560;51.364;12.384;2024-03-25T16:57:38;2.25;;;1.08;;
14933;SDS011;7560;51.364;12.384;2024-03-25T17:02:38;4.18;;;1.77;;
14933;SDS011;7560;51.364;12.384;2024-03-25T17:07:39;2.58;;;1.33;;
14933;SDS011;7560;51.364;12.384;2024-03-25T17:12:40;1.98;;;1.10;;
14933;SDS011;7560;51.364;12.384;2024-03-25T17:17:41;5.43;;;1.63;;
14933;SDS011;7560;51.364;12.384;2024-03-25T17:22:42;49.83;;;17.27;;
14933;SDS011;7560;51.364;12.384;2024-03-25T17:27:43;8.60;;;3.75;;
14933;SDS011;7560;51.364;12.384;2024-03-25T17:32:46;12.93;;;4.95;;
14933;SDS011;7560;51.364;12.384;2024-03-25T17:37:48;6.10;;;2.50;;
14933;SDS011;7560;51.364;12.384;2024-03-25T17:42:49;5.40;;;2.10;;
14933;SDS011;7560;51.364;12.384;2024-03-25T17:47:50;2.97;;;1.85;;
14933;SDS011;7560;51.364;12.384;2024-03-25T17:52:51;3.35;;;2.25;;
14933;SDS011;7560;51.364;12.384;2024-03-25T17:57:52;5.88;;;2.47;;
14933;SDS011;7560;51.364;12.384;2024-03-25T18:02:53;8.20;;;3.65;;
14933;SDS011;7560;51.364;12.384;2024-03-25T18:07:54;5.75;;;3.03;;
14933;SDS011;7560;51.364;12.384;2024-03-25T18:12:55;8.38;;;2.83;;
14933;SDS011;7560;51.364;12.384;2024-03-25T18:17:56;6.18;;;2.70;;
14933;SDS011;7560;51.364;12.384;2024-03-25T18:22:58;7.32;;;3.40;;
14933;SDS011;7560;51.364;12.384;2024-03-25T18:27:59;6.20;;;3.28;;
14933;SDS011;7560;51.364;12.384;2024-03-25T18:33:01;9.02;;;3.38;;
14933;SDS011;7560;51.364;12.384;2024-03-25T18:38:05;9.35;;;4.18;;
14933;SDS011;7560;51.364;12.384;2024-03-25T18:43:06;10.27;;;4.78;;
14933;SDS011;7560;51.364;12.384;2024-03-25T18:48:08;8.40;;;4.88;;
14933;SDS011;7560;51.364;12.384;2024-03-25T18:53:08;8.93;;;5.25;;
14933;SDS011;7560;51.364;12.384;2024-03-25T18:58:09;9.80;;;5.07;;
14933;SDS011;7560;51.364;12.384;2024-03-25T19:03:10;8.63;;;5.57;;
14933;SDS011;7560;51.364;12.384;2024-03-25T19:08:11;8.02;;;5.05;;
14933;SDS011;7560;51.364;12.384;2024-03-25T19:13:12;11.48;;;7.18;;
14933;SDS011;7560;51.364;12.384;2024-03-25T19:18:13;15.10;;;8.90;;
14933;SDS011;7560;51.364;12.384;2024-03-25T19:23:13;17.40;;;7.30;;
14933;SDS011;7560;51.364;12.384;2024-03-25T19:28:16;11.30;;;7.10;;
14933;SDS011;7560;51.364;12.384;2024-03-25T19:33:17;15.25;;;7.63;;
14933;SDS011;7560;51.364;12.384;2024-03-25T19:38:17;14.05;;;8.18;;
14933;SDS011;7560;51.364;12.384;2024-03-25T19:43:19;12.65;;;7.30;;
14933;SDS011;7560;51.364;12.384;2024-03-25T19:48:20;13.43;;;6.70;;
14933;SDS011;7560;51.364;12.384;2024-03-25T19:53:20;9.52;;;6.25;;
14933;SDS011;7560;51.364;12.384;2024-03-25T19:58:21;9.55;;;5.43;;
14933;SDS011;7560;51.364;12.384;2024-03-25T20:03:22;8.13;;;5.18;;
14933;SDS011;7560;51.364;12.384;2024-03-25T20:08:23;13.10;;;5.85;;
14933;SDS011;7560;51.364;12.384;2024-03-25T20:13:24;11.88;;;5.03;;
14933;SDS011;7560;51.364;12.384;2024-03-25T20:18:25;11.63;;;6.25;;
14933;SDS011;7560;51.364;12.384;2024-03-25T20:23:26;14.93;;;6.88;;
14933;SDS011;7560;51.364;12.384;2024-03-25T20:28:26;12.07;;;5.45;;
14933;SDS011;7560;51.364;12.384;2024-03-25T20:33:27;10.93;;;6.10;;
14933;SDS011;7560;51.364;12.384;2024-03-25T20:38:30;13.13;;;6.80;;
14933;SDS011;7560;51.364;12.384;2024-03-25T20:43:31;12.55;;;6.72;;
14933;SDS011;7560;51.364;12.384;2024-03-25T20:48:32;12.55;;;6.97;;
14933;SDS011;7560;51.364;12.384;2024-03-25T20:53:32;11.27;;;6.38;;
14933;SDS011;7560;51.364;12.384;2024-03-25T20:58:33;15.23;;;7.10;;
14933;SDS011;7560;51.364;12.384;2024-03-25T21:03:35;12.75;;;6.97;;
14933;SDS011;7560;51.364;12.384;2024-03-25T21:08:36;15.38;;;6.68;;
14933;SDS011;7560;51.364;12.384;2024-03-25T21:13:36;12.77;;;6.60;;
14933;SDS011;7560;51.364;12.384;2024-03-25T21:18:37;12.82;;;7.00;;
14933;SDS011;7560;51.364;12.384;2024-03-25T21:23:38;12.73;;;6.57;;
14933;SDS011;7560;51.364;12.384;2024-03-25T21:28:39;11.85;;;6.22;;
14933;SDS011;7560;51.364;12.384;2024-03-25T21:33:39;12.57;;;6.47;;
14933;SDS011;7560;51.364;12.384;2024-03-25T21:38:41;12.15;;;6.55;;
14933;SDS011;7560;51.364;12.384;2024-03-25T21:43:42;12.10;;;6.80;;
14933;SDS011;7560;51.364;12.384;2024-03-25T21:48:43;15.52;;;7.80;;
14933;SDS011;7560;51.364;12.384;2024-03-25T21:53:44;13.43;;;6.57;;
14933;SDS011;7560;51.364;12.384;2024-03-25T21:58:45;12.02;;;7.10;;
14933;SDS011;7560;51.364;12.384;2024-03-25T22:03:46;14.25;;;6.97;;
14933;SDS011;7560;51.364;12.384;2024-03-25T22:08:47;13.48;;;6.97;;
14933;SDS011;7560;51.364;12.384;2024-03-25T22:13:48;12.77;;;6.70;;
14933;SDS011;7560;51.364;12.384;2024-03-25T22:18:49;12.70;;;6.78;;
14933;SDS011;7560;51.364;12.384;2024-03-25T22:23:50;12.35;;;6.38;;
14933;SDS011;7560;51.364;12.384;2024-03-25T22:28:51;11.85;;;6.20;;
14933;SDS011;7560;51.364;12.384;2024-03-25T22:33:52;9.40;;;6.00;;
14933;SDS011;7560;51.364;12.384;2024-03-25T22:38:53;9.38;;;5.65;;
14933;SDS011;7560;51.364;12.384;2024-03-25T22:43:53;9.18;;;5.70;;
14933;SDS011;7560;51.364;12.384;2024-03-25T22:48:54;9.95;;;5.47;;
14933;SDS011;7560;51.364;12.384;2024-03-25T22:53:55;10.57;;;5.40;;
14933;SDS011;7560;51.364;12.384;2024-03-25T22:58:56;8.50;;;5.40;;
14933;SDS011;7560;51.364;12.384;2024-03-25T23:03:57;11.40;;;5.60;;
14933;SDS011;7560;51.364;12.384;2024-03-25T23:08:57;7.80;;;5.07;;
14933;SDS011;7560;51.364;12.384;2024-03-25T23:13:58;11.20;;;5.82;;
14933;SDS011;7560;51.364;12.384;2024-03-25T23:18:59;10.35;;;5.70;;
14933;SDS011;7560;51.364;12.384;2024-03-25T23:24:00;13.98;;;5.07;;
14933;SDS011;7560;51.364;12.384;2024-03-25T23:29:01;9.65;;;5.40;;
14933;SDS011;7560;51.364;12.384;2024-03-25T23:34:02;10.02;;;5.05;;
14933;SDS011;7560;51.364;12.384;2024-03-25T23:39:02;7.38;;;4.78;;
14933;SDS011;7560;51.364;12.384;2024-03-25T23:44:04;11.15;;;5.20;;
14933;SDS011;7560;51.364;12.384;2024-03-25T23:49:04;7.75;;;5.20;;
14933;SDS011;7560;51.364;12.384;2024-03-25T23:54:05;9.65;;;5.40;;
14933;SDS011;7560;51.364;12.384;2024-03-25T23:59:06;6.60;;;4.95;;
